sensor_id;sensor_type;location;lat;lon;timestamp;pressure;altitude;pressure_sealevel;temperature;humidity
38227;BME280;24026;49.446;8.576;2022-07-24T00:00:34;100785.75;;;27.60;42.73
38227;BME280;24026;49.446;8.576;2022-07-24T00:02:55;100787.72;;;27.59;42.54
38227;BME280;24026;49.446;8.576;2022-07-24T00:05:15;100790.78;;;27.58;42.64
38227;BME280;24026;49.446;8.576;2022-07-24T00:07:36;100794.69;;;27.57;42.72
38227;BME280;24026;49.446;8.576;2022-07-24T00:09:57;100784.09;;;27.55;42.46
38227;BME280;24026;49.446;8.576;2022-07-24T00:12:17;100790.34;;;27.56;42.51
38227;BME280;24026;49.446;8.576;2022-07-24T00:14:37;100793.06;;;27.56;42.44
38227;BME280;24026;49.446;8.576;2022-07-24T00:16:58;100794.19;;;27.54;42.53
38227;BME280;24026;49.446;8.576;2022-07-24T00:19:18;100792.97;;;27.52;42.65
38227;BME280;24026;49.446;8.576;2022-07-24T00:21:39;100795.72;;;27.52;42.31
38227;BME280;24026;49.446;8.576;2022-07-24T00:23:59;100786.72;;;27.51;42.23
38227;BME280;24026;49.446;8.576;2022-07-24T00:26:20;100793.31;;;27.50;42.48
38227;BME280;24026;49.446;8.576;2022-07-24T00:28:41;100783.09;;;27.47;42.45
38227;BME280;24026;49.446;8.576;2022-07-24T00:31:01;100785.03;;;27.47;42.41
38227;BME280;24026;49.446;8.576;2022-07-24T00:33:21;100782.31;;;27.47;41.95
38227;BME280;24026;49.446;8.576;2022-07-24T00:35:42;100778.44;;;27.48;42.34
38227;BME280;24026;49.446;8.576;2022-07-24T00:38:04;100784.22;;;27.46;42.04
38227;BME280;24026;49.446;8.576;2022-07-24T00:40:25;100773.56;;;27.41;42.49
38227;BME280;24026;49.446;8.576;2022-07-24T00:42:45;100772.00;;;27.40;42.19
38227;BME280;24026;49.446;8.576;2022-07-24T00:45:06;100776.28;;;27.41;42.18
38227;BME280;24026;49.446;8.576;2022-07-24T00:47:27;100778.22;;;27.41;42.25
38227;BME280;24026;49.446;8.576;2022-07-24T00:49:47;100771.19;;;27.40;42.23
38227;BME280;24026;49.446;8.576;2022-07-24T00:52:08;100775.84;;;27.39;42.29
38227;BME280;24026;49.446;8.576;2022-07-24T00:54:29;100773.47;;;27.38;41.84
38227;BME280;24026;49.446;8.576;2022-07-24T00:56:51;100774.25;;;27.38;41.81
38227;BME280;24026;49.446;8.576;2022-07-24T00:59:12;100773.81;;;27.36;41.87
38227;BME280;24026;49.446;8.576;2022-07-24T01:01:33;100772.25;;;27.35;41.93
38227;BME280;24026;49.446;8.576;2022-07-24T01:03:53;100771.91;;;27.37;41.89
38227;BME280;24026;49.446;8.576;2022-07-24T01:06:14;100781.56;;;27.34;41.70
38227;BME280;24026;49.446;8.576;2022-07-24T01:08:35;100778.81;;;27.34;42.09
38227;BME280;24026;49.446;8.576;2022-07-24T01:10:56;100781.09;;;27.32;41.98
38227;BME280;24026;49.446;8.576;2022-07-24T01:13:17;100777.56;;;27.31;41.81
38227;BME280;24026;49.446;8.576;2022-07-24T01:15:38;100784.19;;;27.30;41.86
38227;BME280;24026;49.446;8.576;2022-07-24T01:17:58;100776.34;;;27.29;41.90
38227;BME280;24026;49.446;8.576;2022-07-24T01:20:19;100784.53;;;27.29;42.14
38227;BME280;24026;49.446;8.576;2022-07-24T01:22:39;100780.16;;;27.28;41.87
38227;BME280;24026;49.446;8.576;2022-07-24T01:25:00;100773.94;;;27.27;41.48
38227;BME280;24026;49.446;8.576;2022-07-24T01:27:21;100781.31;;;27.27;41.74
38227;BME280;24026;49.446;8.576;2022-07-24T01:29:42;100769.59;;;27.26;41.76
38227;BME280;24026;49.446;8.576;2022-07-24T01:32:02;100778.50;;;27.23;41.43
38227;BME280;24026;49.446;8.576;2022-07-24T01:34:23;100778.50;;;27.23;41.82
38227;BME280;24026;49.446;8.576;2022-07-24T01:36:43;100778.84;;;27.22;41.58
38227;BME280;24026;49.446;8.576;2022-07-24T01:39:04;100774.16;;;27.22;41.59
38227;BME280;24026;49.446;8.576;2022-07-24T01:41:25;100781.56;;;27.22;41.56
38227;BME280;24026;49.446;8.576;2022-07-24T01:43:45;100779.97;;;27.21;41.60
38227;BME280;24026;49.446;8.576;2022-07-24T01:46:06;100788.50;;;27.19;41.71
38227;BME280;24026;49.446;8.576;2022-07-24T01:48:26;100779.09;;;27.16;41.32
38227;BME280;24026;49.446;8.576;2022-07-24T01:50:47;100781.00;;;27.16;41.11
38227;BME280;24026;49.446;8.576;2022-07-24T01:53:07;100780.22;;;27.15;41.56
38227;BME280;24026;49.446;8.576;2022-07-24T01:55:29;100783.28;;;27.14;41.57
38227;BME280;24026;49.446;8.576;2022-07-24T01:57:49;100784.06;;;27.14;41.55
38227;BME280;24026;49.446;8.576;2022-07-24T02:00:10;100778.16;;;27.12;41.77
38227;BME280;24026;49.446;8.576;2022-07-24T02:02:32;100775.00;;;27.10;41.35
38227;BME280;24026;49.446;8.576;2022-07-24T02:04:53;100774.22;;;27.10;41.10
38227;BME280;24026;49.446;8.576;2022-07-24T02:07:13;100783.97;;;27.11;41.28
38227;BME280;24026;49.446;8.576;2022-07-24T02:09:34;100780.44;;;27.10;41.42
38227;BME280;24026;49.446;8.576;2022-07-24T02:11:54;100775.00;;;27.10;41.17
38227;BME280;24026;49.446;8.576;2022-07-24T02:14:14;100780.78;;;27.09;41.15
38227;BME280;24026;49.446;8.576;2022-07-24T02:16:35;100780.34;;;27.07;41.30
38227;BME280;24026;49.446;8.576;2022-07-24T02:18:55;100775.25;;;27.05;41.37
38227;BME280;24026;49.446;8.576;2022-07-24T02:21:16;100785.31;;;27.05;41.41
38227;BME280;24026;49.446;8.576;2022-07-24T02:23:36;100784.53;;;27.04;41.21
38227;BME280;24026;49.446;8.576;2022-07-24T02:25:57;100785.00;;;27.06;41.17
38227;BME280;24026;49.446;8.576;2022-07-24T02:28:17;100787.28;;;27.04;40.84
38227;BME280;24026;49.446;8.576;2022-07-24T02:30:38;100784.53;;;27.04;40.96
38227;BME280;24026;49.446;8.576;2022-07-24T02:32:58;100781.38;;;27.02;40.99
38227;BME280;24026;49.446;8.576;2022-07-24T02:35:18;100787.16;;;27.01;40.89
38227;BME280;24026;49.446;8.576;2022-07-24T02:37:41;100789.09;;;27.00;41.05
38227;BME280;24026;49.446;8.576;2022-07-24T02:40:02;100787.50;;;26.99;41.24
38227;BME280;24026;49.446;8.576;2022-07-24T02:42:23;100788.63;;;26.98;41.36
38227;BME280;24026;49.446;8.576;2022-07-24T02:44:43;100787.06;;;26.97;41.02
38227;BME280;24026;49.446;8.576;2022-07-24T02:47:04;100785.13;;;26.97;40.88
38227;BME280;24026;49.446;8.576;2022-07-24T02:49:24;100785.34;;;26.92;40.97
38227;BME280;24026;49.446;8.576;2022-07-24T02:51:45;100787.75;;;26.94;41.19
38227;BME280;24026;49.446;8.576;2022-07-24T02:54:05;100788.88;;;26.93;41.20
38227;BME280;24026;49.446;8.576;2022-07-24T02:56:25;100788.44;;;26.91;41.07
38227;BME280;24026;49.446;8.576;2022-07-24T02:58:46;100785.69;;;26.91;41.25
38227;BME280;24026;49.446;8.576;2022-07-24T03:01:06;100791.16;;;26.91;41.21
38227;BME280;24026;49.446;8.576;2022-07-24T03:03:27;100797.75;;;26.90;41.21
38227;BME280;24026;49.446;8.576;2022-07-24T03:05:47;100795.72;;;26.87;41.01
38227;BME280;24026;49.446;8.576;2022-07-24T03:08:08;100793.00;;;26.87;40.92
38227;BME280;24026;49.446;8.576;2022-07-24T03:10:28;100792.16;;;26.86;41.00
38227;BME280;24026;49.446;8.576;2022-07-24T03:12:49;100793.00;;;26.87;40.91
38227;BME280;24026;49.446;8.576;2022-07-24T03:15:10;100793.00;;;26.87;40.79
38227;BME280;24026;49.446;8.576;2022-07-24T03:17:31;100791.72;;;26.84;41.08
38227;BME280;24026;49.446;8.576;2022-07-24T03:19:52;100790.94;;;26.84;40.92
38227;BME280;24026;49.446;8.576;2022-07-24T03:22:12;100799.13;;;26.84;40.99
38227;BME280;24026;49.446;8.576;2022-07-24T03:24:33;100795.94;;;26.82;41.02
38227;BME280;24026;49.446;8.576;2022-07-24T03:26:53;100801.75;;;26.80;41.09
38227;BME280;24026;49.446;8.576;2022-07-24T03:29:14;100803.66;;;26.79;40.76
38227;BME280;24026;49.446;8.576;2022-07-24T03:31:34;100800.13;;;26.79;40.84
38227;BME280;24026;49.446;8.576;2022-07-24T03:33:55;100808.31;;;26.79;41.07
38227;BME280;24026;49.446;8.576;2022-07-24T03:36:15;100811.38;;;26.77;41.18
38227;BME280;24026;49.446;8.576;2022-07-24T03:38:36;100807.09;;;26.76;41.01
38227;BME280;24026;49.446;8.576;2022-07-24T03:40:56;100806.59;;;26.74;41.12
38227;BME280;24026;49.446;8.576;2022-07-24T03:43:17;100813.66;;;26.75;40.87
38227;BME280;24026;49.446;8.576;2022-07-24T03:45:37;100814.78;;;26.74;41.00
38227;BME280;24026;49.446;8.576;2022-07-24T03:47:58;100813.22;;;26.73;41.19
38227;BME280;24026;49.446;8.576;2022-07-24T03:50:18;100813.56;;;26.72;40.90
38227;BME280;24026;49.446;8.576;2022-07-24T03:52:39;100807.28;;;26.71;41.18
38227;BME280;24026;49.446;8.576;2022-07-24T03:54:59;100809.22;;;26.71;41.09
38227;BME280;24026;49.446;8.576;2022-07-24T03:57:19;100817.41;;;26.71;41.14
38227;BME280;24026;49.446;8.576;2022-07-24T03:59:40;100813.44;;;26.68;41.05
38227;BME280;24026;49.446;8.576;2022-07-24T04:02:00;100817.63;;;26.66;41.44
38227;BME280;24026;49.446;8.576;2022-07-24T04:04:21;100822.75;;;26.67;41.23
38227;BME280;24026;49.446;8.576;2022-07-24T04:06:41;100819.56;;;26.65;41.01
38227;BME280;24026;49.446;8.576;2022-07-24T04:09:04;100824.69;;;26.67;41.03
38227;BME280;24026;49.446;8.576;2022-07-24T04:11:25;100826.94;;;26.65;41.19
38227;BME280;24026;49.446;8.576;2022-07-24T04:13:45;100822.16;;;26.61;41.23
38227;BME280;24026;49.446;8.576;2022-07-24T04:16:06;100828.38;;;26.62;41.06
38227;BME280;24026;49.446;8.576;2022-07-24T04:18:26;100831.47;;;26.60;41.16
38227;BME280;24026;49.446;8.576;2022-07-24T04:20:47;100833.41;;;26.60;41.55
38227;BME280;24026;49.446;8.576;2022-07-24T04:23:07;100826.00;;;26.60;41.08
38227;BME280;24026;49.446;8.576;2022-07-24T04:25:28;100834.84;;;26.57;41.44
38227;BME280;24026;49.446;8.576;2022-07-24T04:27:48;100836.47;;;26.58;41.41
38227;BME280;24026;49.446;8.576;2022-07-24T04:30:10;100823.94;;;26.57;41.51
38227;BME280;24026;49.446;8.576;2022-07-24T04:32:30;100834.06;;;26.57;41.50
38227;BME280;24026;49.446;8.576;2022-07-24T04:34:51;100837.91;;;26.56;41.53
38227;BME280;24026;49.446;8.576;2022-07-24T04:37:12;100829.28;;;26.54;41.55
38227;BME280;24026;49.446;8.576;2022-07-24T04:39:32;100835.53;;;26.54;41.36
38227;BME280;24026;49.446;8.576;2022-07-24T04:41:53;100840.19;;;26.54;41.47
38227;BME280;24026;49.446;8.576;2022-07-24T04:44:13;100828.84;;;26.52;41.29
38227;BME280;24026;49.446;8.576;2022-07-24T04:46:33;100826.91;;;26.52;41.60
38227;BME280;24026;49.446;8.576;2022-07-24T04:48:54;100823.84;;;26.54;41.37
38227;BME280;24026;49.446;8.576;2022-07-24T04:51:14;100824.50;;;26.51;41.38
38227;BME280;24026;49.446;8.576;2022-07-24T04:53:35;100822.56;;;26.51;41.40
38227;BME280;24026;49.446;8.576;2022-07-24T04:55:55;100827.69;;;26.53;41.46
38227;BME280;24026;49.446;8.576;2022-07-24T04:58:15;100822.25;;;26.53;41.08
38227;BME280;24026;49.446;8.576;2022-07-24T05:00:36;100826.56;;;26.54;41.13
38227;BME280;24026;49.446;8.576;2022-07-24T05:02:56;100834.28;;;26.52;41.52
38227;BME280;24026;49.446;8.576;2022-07-24T05:05:17;100835.06;;;26.52;41.57
38227;BME280;24026;49.446;8.576;2022-07-24T05:07:37;100826.91;;;26.52;41.41
38227;BME280;24026;49.446;8.576;2022-07-24T05:09:58;100830.41;;;26.53;41.24
38227;BME280;24026;49.446;8.576;2022-07-24T05:12:18;100830.41;;;26.53;41.41
38227;BME280;24026;49.446;8.576;2022-07-24T05:14:39;100831.56;;;26.52;41.45
38227;BME280;24026;49.446;8.576;2022-07-24T05:16:59;100833.63;;;26.55;41.25
38227;BME280;24026;49.446;8.576;2022-07-24T05:19:19;100835.53;;;26.54;41.48
38227;BME280;24026;49.446;8.576;2022-07-24T05:21:40;100839.41;;;26.53;41.20
38227;BME280;24026;49.446;8.576;2022-07-24T05:24:00;100843.69;;;26.54;41.01
38227;BME280;24026;49.446;8.576;2022-07-24T05:26:22;100843.69;;;26.54;41.43
38227;BME280;24026;49.446;8.576;2022-07-24T05:28:42;100845.31;;;26.55;41.46
38227;BME280;24026;49.446;8.576;2022-07-24T05:31:03;100847.69;;;26.57;41.05
38227;BME280;24026;49.446;8.576;2022-07-24T05:33:24;100845.75;;;26.57;41.42
38227;BME280;24026;49.446;8.576;2022-07-24T05:35:44;100843.03;;;26.57;41.18
38227;BME280;24026;49.446;8.576;2022-07-24T05:38:05;100843.47;;;26.59;41.32
38227;BME280;24026;49.446;8.576;2022-07-24T05:40:25;100847.81;;;26.60;41.12
38227;BME280;24026;49.446;8.576;2022-07-24T05:42:46;100846.19;;;26.59;41.14
38227;BME280;24026;49.446;8.576;2022-07-24T05:45:06;100844.28;;;26.60;41.17
38227;BME280;24026;49.446;8.576;2022-07-24T05:47:27;100844.28;;;26.60;41.02
38227;BME280;24026;49.446;8.576;2022-07-24T05:49:47;100841.72;;;26.64;41.05
38227;BME280;24026;49.446;8.576;2022-07-24T05:52:08;100844.44;;;26.64;41.22
38227;BME280;24026;49.446;8.576;2022-07-24T05:54:28;100837.69;;;26.61;41.27
38227;BME280;24026;49.446;8.576;2022-07-24T05:56:49;100842.81;;;26.62;41.28
38227;BME280;24026;49.446;8.576;2022-07-24T05:59:09;100846.38;;;26.63;41.01
38227;BME280;24026;49.446;8.576;2022-07-24T06:01:30;100845.66;;;26.66;40.99
38227;BME280;24026;49.446;8.576;2022-07-24T06:03:50;100851.94;;;26.67;41.20
38227;BME280;24026;49.446;8.576;2022-07-24T06:06:11;100848.06;;;26.68;40.66
38227;BME280;24026;49.446;8.576;2022-07-24T06:08:31;100848.53;;;26.70;41.10
38227;BME280;24026;49.446;8.576;2022-07-24T06:10:52;100850.09;;;26.71;40.89
38227;BME280;24026;49.446;8.576;2022-07-24T06:13:12;100843.19;;;26.73;40.85
38227;BME280;24026;49.446;8.576;2022-07-24T06:15:32;100855.34;;;26.76;40.78
38227;BME280;24026;49.446;8.576;2022-07-24T06:17:53;100848.41;;;26.78;40.43
38227;BME280;24026;49.446;8.576;2022-07-24T06:20:13;100852.38;;;26.81;40.53
38227;BME280;24026;49.446;8.576;2022-07-24T06:22:36;100859.44;;;26.82;40.74
38227;BME280;24026;49.446;8.576;2022-07-24T06:24:56;100855.22;;;26.85;40.31
38227;BME280;24026;49.446;8.576;2022-07-24T06:27:17;100854.88;;;26.86;40.54
38227;BME280;24026;49.446;8.576;2022-07-24T06:29:37;100863.53;;;26.88;40.33
38227;BME280;24026;49.446;8.576;2022-07-24T06:31:58;100869.00;;;26.88;40.21
38227;BME280;24026;49.446;8.576;2022-07-24T06:34:18;100865.94;;;26.90;40.52
38227;BME280;24026;49.446;8.576;2022-07-24T06:36:43;100870.22;;;26.91;40.41
38227;BME280;24026;49.446;8.576;2022-07-24T06:39:04;100868.75;;;26.93;40.47
38227;BME280;24026;49.446;8.576;2022-07-24T06:41:24;100867.25;;;26.96;40.40
38227;BME280;24026;49.446;8.576;2022-07-24T06:43:44;100863.41;;;26.97;40.38
38227;BME280;24026;49.446;8.576;2022-07-24T06:46:05;100872.38;;;26.97;40.16
38227;BME280;24026;49.446;8.576;2022-07-24T06:48:26;100866.59;;;26.99;40.16
38227;BME280;24026;49.446;8.576;2022-07-24T06:50:46;100867.84;;;27.02;40.30
38227;BME280;24026;49.446;8.576;2022-07-24T06:53:07;100875.69;;;27.03;40.17
38227;BME280;24026;49.446;8.576;2022-07-24T06:55:27;100872.59;;;27.05;40.19
38227;BME280;24026;49.446;8.576;2022-07-24T06:57:48;100871.13;;;27.07;40.25
38227;BME280;24026;49.446;8.576;2022-07-24T07:00:09;100866.13;;;27.09;39.82
38227;BME280;24026;49.446;8.576;2022-07-24T07:02:30;100861.13;;;27.11;40.10
38227;BME280;24026;49.446;8.576;2022-07-24T07:04:50;100853.75;;;27.12;40.19
38227;BME280;24026;49.446;8.576;2022-07-24T07:07:11;100846.78;;;27.14;39.88
38227;BME280;24026;49.446;8.576;2022-07-24T07:09:31;100848.06;;;27.17;40.02
38227;BME280;24026;49.446;8.576;2022-07-24T07:11:51;100850.09;;;27.20;39.97
38227;BME280;24026;49.446;8.576;2022-07-24T07:14:12;100844.66;;;27.20;39.94
38227;BME280;24026;49.446;8.576;2022-07-24T07:16:32;100845.88;;;27.23;40.07
38227;BME280;24026;49.446;8.576;2022-07-24T07:18:53;100847.13;;;27.25;40.06
38227;BME280;24026;49.446;8.576;2022-07-24T07:21:13;100846.78;;;27.27;39.97
38227;BME280;24026;49.446;8.576;2022-07-24T07:23:34;100839.88;;;27.29;40.02
38227;BME280;24026;49.446;8.576;2022-07-24T07:25:54;100850.44;;;27.31;40.08
38227;BME280;24026;49.446;8.576;2022-07-24T07:28:15;100848.16;;;27.33;40.06
38227;BME280;24026;49.446;8.576;2022-07-24T07:30:36;100839.63;;;27.34;39.83
38227;BME280;24026;49.446;8.576;2022-07-24T07:32:58;100836.56;;;27.36;39.68
38227;BME280;24026;49.446;8.576;2022-07-24T07:35:18;100834.28;;;27.38;39.57
38227;BME280;24026;49.446;8.576;2022-07-24T07:37:40;100838.59;;;27.39;39.69
38227;BME280;24026;49.446;8.576;2022-07-24T07:40:00;100839.88;;;27.42;39.82
38227;BME280;24026;49.446;8.576;2022-07-24T07:42:21;100837.56;;;27.44;39.47
38227;BME280;24026;49.446;8.576;2022-07-24T07:44:41;100830.97;;;27.45;39.39
38227;BME280;24026;49.446;8.576;2022-07-24T07:47:02;100830.63;;;27.46;39.71
38227;BME280;24026;49.446;8.576;2022-07-24T07:49:22;100832.66;;;27.49;39.78
38227;BME280;24026;49.446;8.576;2022-07-24T07:51:43;100831.53;;;27.50;39.35
38227;BME280;24026;49.446;8.576;2022-07-24T07:54:07;100833.56;;;27.53;39.32
38227;BME280;24026;49.446;8.576;2022-07-24T07:56:27;100838.69;;;27.55;39.20
38227;BME280;24026;49.446;8.576;2022-07-24T07:58:50;100831.28;;;27.56;39.35
38227;BME280;24026;49.446;8.576;2022-07-24T08:01:11;100830.94;;;27.57;39.10
38227;BME280;24026;49.446;8.576;2022-07-24T08:03:31;100840.34;;;27.60;39.43
38227;BME280;24026;49.446;8.576;2022-07-24T08:05:52;100838.09;;;27.62;39.15
38227;BME280;24026;49.446;8.576;2022-07-24T08:08:12;100840.47;;;27.63;39.51
38227;BME280;24026;49.446;8.576;2022-07-24T08:10:32;100844.44;;;27.66;39.25
38227;BME280;24026;49.446;8.576;2022-07-24T08:12:53;100840.22;;;27.68;39.28
38227;BME280;24026;49.446;8.576;2022-07-24T08:15:13;100843.41;;;27.70;39.10
38227;BME280;24026;49.446;8.576;2022-07-24T08:17:34;100842.25;;;27.71;38.93
38227;BME280;24026;49.446;8.576;2022-07-24T08:19:54;100831.78;;;27.73;39.38
38227;BME280;24026;49.446;8.576;2022-07-24T08:22:15;100848.97;;;27.74;39.00
38227;BME280;24026;49.446;8.576;2022-07-24T08:24:35;100847.47;;;27.77;38.87
38227;BME280;24026;49.446;8.576;2022-07-24T08:26:56;100842.47;;;27.79;38.71
38227;BME280;24026;49.446;8.576;2022-07-24T08:29:16;100843.69;;;27.81;39.14
38227;BME280;24026;49.446;8.576;2022-07-24T08:31:37;100836.75;;;27.84;38.92
38227;BME280;24026;49.446;8.576;2022-07-24T08:33:57;100836.06;;;27.87;38.82
38227;BME280;24026;49.446;8.576;2022-07-24T08:36:18;100839.56;;;27.87;38.62
38227;BME280;24026;49.446;8.576;2022-07-24T08:38:38;100838.88;;;27.90;39.01
38227;BME280;24026;49.446;8.576;2022-07-24T08:40:59;100839.34;;;27.93;38.81
38227;BME280;24026;49.446;8.576;2022-07-24T08:43:19;100837.88;;;27.95;38.71
38227;BME280;24026;49.446;8.576;2022-07-24T08:45:41;100843.78;;;27.97;38.72
38227;BME280;24026;49.446;8.576;2022-07-24T08:48:03;100837.97;;;27.99;38.61
38227;BME280;24026;49.446;8.576;2022-07-24T08:50:24;100839.19;;;28.01;38.81
38227;BME280;24026;49.446;8.576;2022-07-24T08:52:45;100832.59;;;28.02;38.47
38227;BME280;24026;49.446;8.576;2022-07-24T08:55:06;100829.94;;;28.06;38.44
38227;BME280;24026;49.446;8.576;2022-07-24T08:57:26;100828.47;;;28.08;38.25
38227;BME280;24026;49.446;8.576;2022-07-24T08:59:47;100830.84;;;28.10;38.54
38227;BME280;24026;49.446;8.576;2022-07-24T09:02:08;100826.63;;;28.13;38.52
38227;BME280;24026;49.446;8.576;2022-07-24T09:04:42;100834.13;;;28.16;38.53
38227;BME280;24026;49.446;8.576;2022-07-24T09:07:15;100827.13;;;28.18;38.35
38227;BME280;24026;49.446;8.576;2022-07-24T09:09:40;100831.91;;;28.21;38.12
38227;BME280;24026;49.446;8.576;2022-07-24T09:12:09;100829.63;;;28.23;38.05
38227;BME280;24026;49.446;8.576;2022-07-24T09:14:31;100828.13;;;28.26;38.29
38227;BME280;24026;49.446;8.576;2022-07-24T09:16:51;100821.19;;;28.28;38.37
38227;BME280;24026;49.446;8.576;2022-07-24T09:19:13;100824.34;;;28.31;38.22
38227;BME280;24026;49.446;8.576;2022-07-24T09:21:36;100818.53;;;28.32;37.88
38227;BME280;24026;49.446;8.576;2022-07-24T09:23:57;100819.75;;;28.35;38.09
38227;BME280;24026;49.446;8.576;2022-07-24T09:26:22;100818.63;;;28.36;37.77
38227;BME280;24026;49.446;8.576;2022-07-24T09:28:48;100811.63;;;28.38;37.94
38227;BME280;24026;49.446;8.576;2022-07-24T09:31:09;100816.41;;;28.41;37.62
38227;BME280;24026;49.446;8.576;2022-07-24T09:33:35;100811.41;;;28.43;37.75
38227;BME280;24026;49.446;8.576;2022-07-24T09:35:55;100809.09;;;28.45;37.99
38227;BME280;24026;49.446;8.576;2022-07-24T09:38:21;100804.84;;;28.48;37.75
38227;BME280;24026;49.446;8.576;2022-07-24T09:40:49;100808.84;;;28.51;37.59
38227;BME280;24026;49.446;8.576;2022-07-24T09:48:37;100803.56;;;28.58;37.61
38227;BME280;24026;49.446;8.576;2022-07-24T09:51:02;100804.81;;;28.60;37.72
38227;BME280;24026;49.446;8.576;2022-07-24T09:53:27;100812.31;;;28.63;37.47
38227;BME280;24026;49.446;8.576;2022-07-24T09:55:58;100802.16;;;28.64;37.64
38227;BME280;24026;49.446;8.576;2022-07-24T09:58:19;100804.19;;;28.67;37.63
38227;BME280;24026;49.446;8.576;2022-07-24T10:00:42;100801.09;;;28.69;37.48
38227;BME280;24026;49.446;8.576;2022-07-24T10:03:05;100801.97;;;28.73;37.26
38227;BME280;24026;49.446;8.576;2022-07-24T10:05:27;100800.00;;;28.73;37.17
38227;BME280;24026;49.446;8.576;2022-07-24T10:07:53;100804.00;;;28.76;37.30
38227;BME280;24026;49.446;8.576;2022-07-24T10:10:16;100801.69;;;28.78;37.49
38227;BME280;24026;49.446;8.576;2022-07-24T10:12:39;100801.34;;;28.79;37.29
38227;BME280;24026;49.446;8.576;2022-07-24T10:15:00;100793.56;;;28.81;37.50
38227;BME280;24026;49.446;8.576;2022-07-24T10:17:29;100798.69;;;28.83;37.58
38227;BME280;24026;49.446;8.576;2022-07-24T10:19:53;100787.81;;;28.87;37.08
38227;BME280;24026;49.446;8.576;2022-07-24T10:22:16;100787.47;;;28.88;37.26
38227;BME280;24026;49.446;8.576;2022-07-24T10:24:56;100788.34;;;28.92;37.05
38227;BME280;24026;49.446;8.576;2022-07-24T10:27:30;100788.34;;;28.92;36.94
38227;BME280;24026;49.446;8.576;2022-07-24T10:29:53;100778.63;;;28.95;37.12
38227;BME280;24026;49.446;8.576;2022-07-24T10:32:14;100788.06;;;28.97;36.87
38227;BME280;24026;49.446;8.576;2022-07-24T10:42:17;100787.84;;;29.06;37.03
38227;BME280;24026;49.446;8.576;2022-07-24T10:44:38;100779.28;;;29.08;36.78
38227;BME280;24026;49.446;8.576;2022-07-24T10:47:09;100775.06;;;29.10;36.80
38227;BME280;24026;49.446;8.576;2022-07-24T10:49:35;100778.22;;;29.12;36.64
38227;BME280;24026;49.446;8.576;2022-07-24T10:51:59;100769.66;;;29.14;36.84
38227;BME280;24026;49.446;8.576;2022-07-24T10:54:22;100770.09;;;29.16;36.50
38227;BME280;24026;49.446;8.576;2022-07-24T10:56:48;100763.50;;;29.17;36.96
38227;BME280;24026;49.446;8.576;2022-07-24T10:59:11;100760.78;;;29.17;36.75
38227;BME280;24026;49.446;8.576;2022-07-24T11:03:56;100757.28;;;29.20;36.51
38227;BME280;24026;49.446;8.576;2022-07-24T11:06:18;100752.28;;;29.22;36.54
38227;BME280;24026;49.446;8.576;2022-07-24T11:08:48;100748.38;;;29.23;36.40
38227;BME280;24026;49.446;8.576;2022-07-24T11:18:35;100745.34;;;29.28;36.32
38227;BME280;24026;49.446;8.576;2022-07-24T11:20:59;100746.16;;;29.29;36.52
38227;BME280;24026;49.446;8.576;2022-07-24T11:23:20;100744.63;;;29.31;36.31
38227;BME280;24026;49.446;8.576;2022-07-24T11:25:41;100737.19;;;29.32;36.79
38227;BME280;24026;49.446;8.576;2022-07-24T11:30:29;100730.66;;;29.36;36.24
38227;BME280;24026;49.446;8.576;2022-07-24T11:32:50;100726.00;;;29.37;36.09
38227;BME280;24026;49.446;8.576;2022-07-24T11:35:10;100724.47;;;29.40;36.31
38227;BME280;24026;49.446;8.576;2022-07-24T11:37:31;100727.63;;;29.42;36.28
38227;BME280;24026;49.446;8.576;2022-07-24T11:39:51;100731.59;;;29.44;36.29
38227;BME280;24026;49.446;8.576;2022-07-24T11:42:14;100723.03;;;29.46;36.50
38227;BME280;24026;49.446;8.576;2022-07-24T11:44:43;100716.00;;;29.48;36.28
38227;BME280;24026;49.446;8.576;2022-07-24T11:49:27;100714.50;;;29.51;36.03
38227;BME280;24026;49.446;8.576;2022-07-24T11:51:49;100706.34;;;29.54;36.04
38227;BME280;24026;49.446;8.576;2022-07-24T11:54:20;100706.41;;;29.58;36.07
38227;BME280;24026;49.446;8.576;2022-07-24T11:56:41;100704.47;;;29.59;36.30
38227;BME280;24026;49.446;8.576;2022-07-24T11:59:01;100700.59;;;29.60;36.27
38227;BME280;24026;49.446;8.576;2022-07-24T12:01:23;100688.50;;;29.61;35.83
38227;BME280;24026;49.446;8.576;2022-07-24T12:03:58;100682.28;;;29.64;36.24
38227;BME280;24026;49.446;8.576;2022-07-24T12:06:19;100679.16;;;29.65;36.21
38227;BME280;24026;49.446;8.576;2022-07-24T12:08:40;100672.53;;;29.66;36.06
38227;BME280;24026;49.446;8.576;2022-07-24T12:11:00;100676.50;;;29.69;35.80
38227;BME280;24026;49.446;8.576;2022-07-24T12:13:21;100674.19;;;29.71;36.12
38227;BME280;24026;49.446;8.576;2022-07-24T12:15:42;100671.09;;;29.72;35.58
38227;BME280;24026;49.446;8.576;2022-07-24T12:18:05;100662.50;;;29.74;35.54
38227;BME280;24026;49.446;8.576;2022-07-24T12:20:36;100669.56;;;29.75;35.85
38227;BME280;24026;49.446;8.576;2022-07-24T12:22:59;100660.91;;;29.73;35.87
38227;BME280;24026;49.446;8.576;2022-07-24T12:25:20;100655.50;;;29.77;35.79
38227;BME280;24026;49.446;8.576;2022-07-24T12:27:44;100658.69;;;29.79;35.68
38227;BME280;24026;49.446;8.576;2022-07-24T12:30:16;100650.91;;;29.81;35.61
38227;BME280;24026;49.446;8.576;2022-07-24T12:32:52;100647.00;;;29.82;35.24
38227;BME280;24026;49.446;8.576;2022-07-24T12:35:12;100647.44;;;29.84;35.36
38227;BME280;24026;49.446;8.576;2022-07-24T12:37:37;100641.56;;;29.85;35.42
38227;BME280;24026;49.446;8.576;2022-07-24T12:39:57;100633.00;;;29.87;35.28
38227;BME280;24026;49.446;8.576;2022-07-24T12:42:28;100639.69;;;29.89;35.36
38227;BME280;24026;49.446;8.576;2022-07-24T12:44:49;100635.00;;;29.90;35.36
38227;BME280;24026;49.446;8.576;2022-07-24T12:47:10;100629.16;;;29.91;35.60